Consulta los datos en tiempo real de la estación municipal de Cercs - St.Jordi
| Hora UTC | 21:20 |
|---|---|
| Temperatura | 13.1 ºC |
| Humedad | 83.5 % |
| Presión | 1015.4 hPa |
| Pluja | 0.0 mm |
| Velocidad viento | 0.0 km/h |
| Dirección viento | NNE |
| Radiación solar | 0.1 W/m² |
| Temperatura (ºC) | Humedad (%) | Presión (hPa) | Velocidad viento (km/h) | Precipitación (mm) | Radiación solar (W/m²) | |||||||||||||
|---|---|---|---|---|---|---|---|---|---|---|---|---|---|---|---|---|---|---|
| Hora UTC | Aire | Humedad | Presión | Vel. | Dir. | Vel. Max | Dir. | Intent. máx 5 min. | Rad. Sol. | |||||||||
| 00:05 | 8.5 | 90.9 | 1013.6 | 0.4 | NW | 0.4 | WNW | 0.0 | 0.2 | |||||||||
| 00:10 | 8.6 | 90.4 | 1013.5 | 0.2 | WNW | 3.4 | WNW | 0.0 | 0.2 | |||||||||
| 00:15 | 8.6 | 90.7 | 1013.5 | 0.6 | NNW | 11.5 | WNW | 0.0 | 0.2 | |||||||||
| 00:20 | 8.7 | 90.9 | 1013.5 | 0.0 | NNE | 0.0 | NNE | 0.0 | 0.2 | |||||||||
| 00:25 | 8.6 | 90.8 | 1013.4 | 0.4 | N | 6.1 | NNE | 0.0 | 0.2 | |||||||||
| 00:30 | 8.6 | 90.7 | 1013.4 | 0.0 | NNE | 0.0 | WNW | 0.0 | 0.2 | |||||||||
| 00:35 | 8.4 | 90.8 | 1013.4 | 0.0 | NNE | 0.0 | WNW | 0.0 | 0.1 | |||||||||
| 00:40 | 8.4 | 91.2 | 1013.3 | 0.0 | NNE | 0.0 | N | 0.0 | 0.1 | |||||||||
| 00:45 | 8.5 | 90.4 | 1013.3 | 0.8 | NNE | 6.1 | NNE | 0.0 | 0.2 | |||||||||
| 00:50 | 8.5 | 90.3 | 1013.2 | 0.0 | NNE | 0.0 | N | 0.0 | 0.2 | |||||||||
| 00:55 | 8.5 | 90.5 | 1013.2 | 0.0 | NNE | 0.0 | NE | 0.0 | 0.2 | |||||||||
| 01:00 | 8.5 | 90.4 | 1013.1 | 0.9 | NNE | 6.1 | NNW | 0.0 | 0.1 | |||||||||
| 01:05 | 8.4 | 90.4 | 1013.0 | 0.0 | NNE | 0.0 | W | 0.0 | 0.2 | |||||||||
| 01:10 | 8.4 | 91.4 | 1013.0 | 0.0 | NNE | 0.0 | ENE | 0.0 | 0.2 | |||||||||
| 01:15 | 8.4 | 90.9 | 1012.9 | 0.0 | WNW | 3.4 | WNW | 0.0 | 0.2 | |||||||||
| 01:20 | 8.3 | 91.0 | 1012.8 | 0.1 | NNW | 6.1 | NNW | 0.0 | 0.1 | |||||||||
| 01:25 | 8.3 | 91.9 | 1012.8 | 0.0 | ENE | 3.4 | ENE | 0.0 | 0.2 | |||||||||
| 01:30 | 8.2 | 92.0 | 1012.8 | 0.2 | S | 6.1 | SSW | 0.0 | 0.2 | |||||||||
| 01:35 | 8.1 | 91.8 | 1012.8 | 0.0 | NNE | 0.0 | ENE | 0.0 | 0.2 | |||||||||
| 01:40 | 8.1 | 92.2 | 1012.8 | 0.0 | NNE | 0.0 | NNE | 0.0 | 0.2 | |||||||||
| 01:45 | 7.9 | 92.0 | 1012.8 | 0.0 | NNE | 0.0 | S | 0.0 | 0.2 | |||||||||
| 01:50 | 7.8 | 92.5 | 1012.8 | 1.1 | NE | 8.8 | NE | 0.0 | 0.2 | |||||||||
| 01:55 | 8.0 | 90.9 | 1012.8 | 1.5 | NE | 6.1 | NE | 0.0 | 0.2 | |||||||||
| 02:00 | 8.0 | 90.3 | 1012.8 | 0.1 | N | 3.4 | N | 0.0 | 0.2 | |||||||||
| 02:05 | 7.9 | 90.8 | 1012.8 | 0.0 | NNE | 0.0 | E | 0.0 | 0.1 | |||||||||
| 02:10 | 7.7 | 91.7 | 1012.8 | 0.0 | NNE | 0.0 | SW | 0.0 | 0.2 | |||||||||
| 02:15 | 7.6 | 92.0 | 1012.8 | 0.6 | N | 8.8 | NNE | 0.0 | 0.2 | |||||||||
| 02:20 | 7.7 | 91.5 | 1012.8 | 2.6 | NNW | 14.2 | NW | 0.0 | 0.2 | |||||||||
| 02:25 | 7.9 | 90.2 | 1012.7 | 1.3 | NW | 8.8 | W | 0.0 | 0.2 | |||||||||
| 02:30 | 7.7 | 89.9 | 1012.8 | 0.1 | NW | 6.1 | NNW | 0.0 | 0.2 | |||||||||
| 02:35 | 7.4 | 90.8 | 1012.8 | 0.0 | NNE | 0.0 | SW | 0.0 | 0.2 | |||||||||
| 02:40 | 7.3 | 91.6 | 1012.7 | 0.0 | NNE | 0.0 | NNW | 0.0 | 0.1 | |||||||||
| 02:45 | 7.3 | 92.1 | 1012.6 | 0.0 | NNE | 0.0 | NNE | 0.0 | 0.2 | |||||||||
| 02:50 | 7.1 | 92.3 | 1012.6 | 0.0 | NNE | 0.0 | SSW | 0.0 | 0.2 | |||||||||
| 02:55 | 7.1 | 93.1 | 1012.6 | 0.7 | NNW | 8.8 | N | 0.0 | 0.2 | |||||||||
| 03:00 | 7.2 | 92.4 | 1012.6 | 1.5 | NW | 14.2 | NW | 0.0 | 0.2 | |||||||||
| 03:05 | 7.4 | 90.4 | 1012.6 | 0.1 | NW | 11.5 | NW | 0.0 | 0.2 | |||||||||
| 03:10 | 7.4 | 90.0 | 1012.5 | 0.3 | NW | 11.5 | W | 0.0 | 0.2 | |||||||||
| 03:15 | 7.5 | 89.4 | 1012.4 | 0.0 | NNE | 0.0 | W | 0.0 | 0.1 | |||||||||
| 03:20 | 7.0 | 90.2 | 1012.3 | 0.0 | NNE | 0.0 | S | 0.0 | 0.2 | |||||||||
| 03:25 | 6.8 | 91.8 | 1012.3 | 0.0 | NNE | 0.0 | S | 0.0 | 0.2 | |||||||||
| 03:30 | 6.8 | 92.6 | 1012.3 | 0.0 | NNE | 0.0 | ENE | 0.0 | 0.2 | |||||||||
| 03:35 | 6.8 | 92.5 | 1012.2 | 0.5 | NE | 11.5 | NE | 0.0 | 0.1 | |||||||||
| 03:40 | 6.8 | 91.6 | 1012.2 | 0.0 | NNE | 0.0 | NNW | 0.0 | 0.2 | |||||||||
| 03:45 | 6.6 | 91.7 | 1012.2 | 0.0 | NNE | 0.0 | SW | 0.0 | 0.2 | |||||||||
| 03:50 | 6.4 | 92.3 | 1012.3 | 0.0 | NNE | 0.0 | WSW | 0.0 | 0.2 | |||||||||
| 03:55 | 6.4 | 93.0 | 1012.2 | 0.0 | NNE | 0.0 | SSW | 0.0 | 0.2 | |||||||||
| 04:00 | 6.3 | 93.3 | 1012.3 | 0.0 | NNE | 0.0 | NW | 0.0 | 0.2 | |||||||||
| 04:05 | 6.2 | 93.4 | 1012.3 | 0.0 | NNE | 0.0 | NW | 0.0 | 0.2 | |||||||||
| 04:10 | 6.2 | 93.7 | 1012.3 | 0.0 | NNE | 0.0 | NW | 0.0 | 0.2 | |||||||||
| 04:15 | 6.2 | 93.8 | 1012.4 | 0.0 | NNE | 0.0 | NE | 0.0 | 0.2 | |||||||||
| 04:20 | 6.4 | 93.7 | 1012.4 | 0.0 | NE | 3.4 | NE | 0.0 | 0.4 | |||||||||
| 04:25 | 6.4 | 93.1 | 1012.4 | 0.0 | NNE | 0.0 | NNE | 0.0 | 0.8 | |||||||||
| 04:30 | 6.2 | 92.6 | 1012.5 | 0.0 | NNE | 0.0 | NNE | 0.0 | 1.5 | |||||||||
| 04:35 | 6.2 | 93.3 | 1012.5 | 0.0 | NNE | 0.0 | W | 0.0 | 2.3 | |||||||||
| 04:40 | 6.3 | 93.5 | 1012.4 | 0.0 | NW | 6.1 | NW | 0.0 | 3.3 | |||||||||
| 04:45 | 6.3 | 92.5 | 1012.5 | 0.0 | NNE | 0.0 | WNW | 0.0 | 4.5 | |||||||||
| 04:50 | 6.2 | 92.5 | 1012.5 | 0.0 | NNE | 0.0 | W | 0.0 | 6.1 | |||||||||
| 04:55 | 6.2 | 92.9 | 1012.6 | 0.0 | NNE | 0.0 | N | 0.0 | 7.8 | |||||||||
| 05:00 | 6.3 | 92.6 | 1012.7 | 0.0 | WSW | 8.8 | WSW | 0.0 | 9.3 | |||||||||
| 05:05 | 6.4 | 91.8 | 1012.7 | 0.0 | NNE | 0.0 | S | 0.0 | 10.6 | |||||||||
| 05:10 | 6.3 | 92.1 | 1012.7 | 0.0 | NNE | 0.0 | WSW | 0.0 | 11.9 | |||||||||
| 05:15 | 6.4 | 92.2 | 1012.7 | 0.1 | NNE | 8.8 | NNE | 0.0 | 13.2 | |||||||||
| 05:20 | 6.4 | 91.6 | 1012.8 | 0.0 | NNE | 0.0 | S | 0.0 | 14.3 | |||||||||
| 05:25 | 6.3 | 91.9 | 1012.9 | 0.0 | NNE | 0.0 | SSW | 0.0 | 15.6 | |||||||||
| 05:30 | 6.3 | 92.0 | 1012.9 | 0.0 | NNE | 0.0 | NNW | 0.0 | 27.0 | |||||||||
| 05:35 | 7.0 | 91.3 | 1013.0 | 0.0 | NNE | 0.0 | NE | 0.0 | 34.0 | |||||||||
| 05:40 | 7.5 | 88.5 | 1013.0 | 0.0 | NNW | 3.4 | NNW | 0.0 | 50.7 | |||||||||
| 05:45 | 8.3 | 85.0 | 1013.0 | 0.0 | NNE | 0.0 | NW | 0.0 | 37.9 | |||||||||
| 05:50 | 9.0 | 80.4 | 1013.0 | 0.6 | NNW | 14.2 | NW | 0.0 | 33.8 | |||||||||
| 05:55 | 9.4 | 77.9 | 1013.1 | 0.1 | NE | 8.8 | ENE | 0.0 | 52.5 | |||||||||
| 06:00 | 9.1 | 78.7 | 1013.1 | 0.0 | NNE | 0.0 | SSW | 0.0 | 28.3 | |||||||||
| 06:05 | 9.1 | 79.5 | 1013.1 | 0.0 | NNE | 0.0 | NNE | 0.0 | 28.5 | |||||||||
| 06:10 | 8.9 | 80.0 | 1013.1 | 0.1 | NNE | 11.5 | NE | 0.0 | 30.0 | |||||||||
| 06:15 | 8.8 | 80.7 | 1013.1 | 0.1 | N | 14.2 | NNE | 0.0 | 35.0 | |||||||||
| 06:20 | 8.9 | 81.6 | 1013.2 | 0.0 | NNE | 0.0 | WNW | 0.0 | 40.2 | |||||||||
| 06:25 | 9.1 | 80.4 | 1013.2 | 0.2 | NE | 14.2 | NE | 0.0 | 34.7 | |||||||||
| 06:30 | 9.1 | 81.1 | 1013.2 | 0.0 | NNE | 0.0 | NNE | 0.0 | 38.0 | |||||||||
| 06:35 | 9.0 | 82.6 | 1013.3 | 0.8 | NNE | 14.2 | NNW | 0.0 | 37.0 | |||||||||
| 06:40 | 9.0 | 82.4 | 1013.3 | 1.5 | NNE | 14.2 | NNE | 0.0 | 44.2 | |||||||||
| 06:45 | 9.2 | 82.3 | 1013.3 | 0.0 | NNE | 3.4 | NNE | 0.0 | 37.0 | |||||||||
| 06:50 | 9.4 | 82.4 | 1013.3 | 0.0 | NNE | 0.0 | ENE | 0.0 | 37.3 | |||||||||
| 06:55 | 9.4 | 81.8 | 1013.3 | 0.0 | NNE | 0.0 | NE | 0.0 | 39.7 | |||||||||
| 07:00 | 9.4 | 81.8 | 1013.3 | 0.0 | NNE | 0.0 | NNE | 0.0 | 40.5 | |||||||||
| 07:05 | 9.5 | 81.4 | 1013.3 | 0.0 | NNE | 0.0 | E | 0.0 | 42.4 | |||||||||
| 07:10 | 9.7 | 80.9 | 1013.3 | 0.0 | NNE | 0.0 | NE | 0.0 | 44.5 | |||||||||
| 07:15 | 9.9 | 79.4 | 1013.3 | 0.0 | NNE | 0.0 | W | 0.0 | 44.8 | |||||||||
| 07:20 | 9.9 | 79.5 | 1013.2 | 0.0 | NNE | 0.0 | N | 0.0 | 45.6 | |||||||||
| 07:25 | 10.3 | 77.8 | 1013.2 | 0.1 | NW | 11.5 | W | 0.0 | 47.0 | |||||||||
| 07:30 | 10.7 | 75.5 | 1013.2 | 0.0 | NNE | 0.0 | NNE | 0.0 | 48.0 | |||||||||
| 07:35 | 10.8 | 74.1 | 1013.2 | 0.0 | NNE | 0.0 | N | 0.0 | 49.6 | |||||||||
| 07:40 | 11.1 | 74.1 | 1013.2 | 0.0 | NNE | 0.0 | NW | 0.0 | 54.0 | |||||||||
| 07:45 | 11.3 | 74.2 | 1013.3 | 0.0 | NNE | 0.0 | NNE | 0.0 | 60.2 | |||||||||
| 07:50 | 11.5 | 74.2 | 1013.3 | 0.0 | NNE | 3.4 | NNE | 0.0 | 68.4 | |||||||||
| 07:55 | 11.8 | 73.6 | 1013.3 | 0.0 | NNE | 0.0 | NE | 0.0 | 81.5 | |||||||||
| 08:00 | 12.1 | 72.6 | 1013.3 | 0.0 | NNE | 0.0 | ENE | 0.0 | 97.4 | |||||||||
| 08:05 | 12.4 | 72.8 | 1013.3 | 0.0 | NNE | 0.0 | NNE | 0.0 | 113.5 | |||||||||
| 08:10 | 12.5 | 70.4 | 1013.3 | 0.0 | NNE | 0.0 | NE | 0.0 | 131.0 | |||||||||
| 08:15 | 12.9 | 70.4 | 1013.3 | 0.0 | NNE | 0.0 | ESE | 0.0 | 152.0 | |||||||||
| 08:20 | 13.2 | 69.0 | 1013.3 | 0.0 | NNE | 0.0 | ENE | 0.0 | 176.1 | |||||||||
| 08:25 | 13.5 | 67.4 | 1013.3 | 0.0 | NNE | 0.0 | NE | 0.0 | 248.1 | |||||||||
| 08:30 | 13.7 | 67.1 | 1013.4 | 0.0 | NNE | 0.0 | ENE | 0.0 | 353.3 | |||||||||
| 08:35 | 13.7 | 66.3 | 1013.3 | 0.0 | NNE | 0.0 | NE | 0.0 | 481.9 | |||||||||
| 08:40 | 14.0 | 61.7 | 1013.3 | 0.0 | NNE | 0.0 | ENE | 0.0 | 502.8 | |||||||||
| 08:45 | 14.4 | 60.9 | 1013.4 | 0.0 | NNE | 0.0 | NE | 0.0 | 517.6 | |||||||||
| 08:50 | 14.8 | 58.6 | 1013.4 | 0.0 | NNE | 0.0 | ENE | 0.0 | 525.9 | |||||||||
| 08:55 | 15.2 | 60.7 | 1013.5 | 0.0 | NNE | 0.0 | ESE | 0.0 | 506.5 | |||||||||
| 09:00 | 15.8 | 58.5 | 1013.6 | 0.0 | NNE | 0.0 | NE | 0.0 | 562.5 | |||||||||
| 09:05 | 16.1 | 57.5 | 1013.6 | 1.2 | SE | 8.8 | ENE | 0.0 | 590.8 | |||||||||
| 09:10 | 16.4 | 59.9 | 1013.7 | 4.2 | SE | 11.5 | SE | 0.0 | 574.4 | |||||||||
| 09:15 | 16.7 | 58.7 | 1013.7 | 6.2 | SE | 14.2 | NE | 0.0 | 533.9 | |||||||||
| 09:20 | 16.8 | 57.6 | 1013.7 | 7.3 | SE | 16.9 | SSE | 0.0 | 562.5 | |||||||||
| 09:25 | 16.8 | 58.6 | 1013.8 | 5.1 | SE | 14.2 | S | 0.0 | 584.2 | |||||||||
| 09:30 | 17.0 | 57.0 | 1013.9 | 5.7 | SSE | 16.9 | SSW | 0.0 | 498.0 | |||||||||
| 09:35 | 16.7 | 53.6 | 1014.0 | 6.4 | SSE | 16.9 | S | 0.0 | 487.7 | |||||||||
| 09:40 | 16.5 | 54.2 | 1014.1 | 6.8 | SSE | 16.9 | SE | 0.0 | 458.2 | |||||||||
| 09:45 | 16.3 | 55.6 | 1014.2 | 8.6 | SSE | 19.6 | S | 0.0 | 439.1 | |||||||||
| 09:50 | 16.0 | 57.4 | 1014.3 | 8.5 | SSE | 22.3 | SW | 0.0 | 509.7 | |||||||||
| 09:55 | 16.4 | 55.9 | 1014.3 | 6.8 | SE | 19.6 | ESE | 0.0 | 680.5 | |||||||||
| 10:00 | 16.9 | 54.0 | 1014.3 | 7.9 | SE | 19.6 | SE | 0.0 | 688.4 | |||||||||
| 10:05 | 16.9 | 54.9 | 1014.2 | 8.0 | SE | 19.6 | ESE | 0.0 | 499.8 | |||||||||
| 10:10 | 17.0 | 53.8 | 1014.2 | 5.8 | ESE | 14.2 | SE | 0.0 | 541.6 | |||||||||
| 10:15 | 17.2 | 54.5 | 1014.2 | 6.4 | SE | 16.9 | SE | 0.0 | 582.6 | |||||||||
| 10:20 | 17.4 | 52.6 | 1014.2 | 5.1 | SE | 19.6 | SE | 0.0 | 505.4 | |||||||||
| 10:25 | 17.4 | 51.7 | 1014.2 | 7.7 | SE | 16.9 | SE | 0.0 | 441.4 | |||||||||
| 10:30 | 17.1 | 54.3 | 1014.1 | 6.2 | SE | 11.5 | ESE | 0.0 | 432.8 | |||||||||
| 10:35 | 17.2 | 53.9 | 1014.1 | 7.5 | SE | 19.6 | SSE | 0.0 | 375.0 | |||||||||
| 10:40 | 16.9 | 53.6 | 1014.1 | 8.6 | SE | 19.6 | SE | 0.0 | 434.9 | |||||||||
| 10:45 | 16.9 | 54.3 | 1014.0 | 5.1 | SE | 19.6 | SE | 0.0 | 485.6 | |||||||||
| 10:50 | 17.3 | 53.6 | 1013.9 | 4.5 | ESE | 14.2 | SE | 0.0 | 591.4 | |||||||||
| 11:00 | 17.6 | 50.2 | 1013.8 | 4.9 | SE | 14.2 | ESE | 0.0 | 415.7 | |||||||||
| 11:05 | 17.3 | 52.3 | 1013.8 | 3.5 | SE | 11.5 | SE | 0.0 | 422.5 | |||||||||
| 11:10 | 17.4 | 51.8 | 1013.8 | 4.8 | SSE | 14.2 | SSE | 0.0 | 513.7 | |||||||||
| 11:15 | 17.6 | 48.3 | 1013.7 | 5.9 | SSE | 16.9 | SE | 0.0 | 555.8 | |||||||||
| 11:20 | 17.5 | 47.3 | 1013.7 | 8.8 | SE | 19.6 | SE | 0.0 | 438.7 | |||||||||
| 11:25 | 17.3 | 48.5 | 1013.6 | 5.7 | SE | 19.6 | SE | 0.0 | 427.2 | |||||||||
| 11:30 | 17.6 | 49.3 | 1013.5 | 4.6 | SE | 14.2 | SSE | 0.0 | 502.5 | |||||||||
| 11:35 | 17.5 | 50.4 | 1013.5 | 5.5 | SSE | 11.5 | SSW | 0.0 | 438.9 | |||||||||
| 11:40 | 17.4 | 48.7 | 1013.6 | 6.1 | SE | 11.5 | SE | 0.0 | 388.7 | |||||||||
| 11:55 | 18.2 | 43.9 | 1013.6 | 6.7 | ESE | 16.9 | SE | 0.0 | 503.4 | |||||||||
| 12:00 | 18.1 | 44.5 | 1013.6 | 6.0 | SSE | 11.5 | SSE | 0.0 | 405.5 | |||||||||
| 12:05 | 17.8 | 45.4 | 1013.6 | 7.5 | SE | 19.6 | SSE | 0.0 | 447.3 | |||||||||
| 12:10 | 17.5 | 45.4 | 1013.6 | 8.6 | SSE | 19.6 | SSE | 0.0 | 380.6 | |||||||||
| 12:15 | 17.2 | 48.3 | 1013.6 | 6.7 | SSE | 14.2 | SSE | 0.0 | 422.6 | |||||||||
| 12:20 | 17.4 | 48.0 | 1013.6 | 7.0 | SE | 16.9 | SSE | 0.0 | 709.4 | |||||||||
| 12:25 | 18.0 | 49.1 | 1013.6 | 5.6 | SE | 14.2 | ESE | 0.0 | 801.0 | |||||||||
| 12:30 | 18.9 | 46.4 | 1013.7 | 6.1 | SE | 16.9 | SE | 0.0 | 908.0 | |||||||||
| 12:35 | 18.9 | 45.5 | 1013.8 | 6.9 | ESE | 19.6 | SE | 0.0 | 432.1 | |||||||||
| 12:40 | 18.3 | 46.2 | 1013.7 | 9.7 | SE | 19.6 | SE | 0.0 | 333.1 | |||||||||
| 12:45 | 17.7 | 46.4 | 1013.7 | 9.6 | SE | 19.6 | ESE | 0.0 | 441.1 | |||||||||
| 12:50 | 17.7 | 47.4 | 1013.7 | 8.0 | SSE | 19.6 | SE | 0.0 | 535.0 | |||||||||
| 12:55 | 17.9 | 47.0 | 1013.7 | 7.0 | SE | 16.9 | ESE | 0.0 | 514.8 | |||||||||
| 13:00 | 18.3 | 45.4 | 1013.7 | 6.8 | ESE | 19.6 | SSE | 0.0 | 508.0 | |||||||||
| 13:05 | 18.3 | 46.4 | 1013.7 | 9.3 | SSE | 16.9 | S | 0.0 | 520.8 | |||||||||
| 13:10 | 18.1 | 45.9 | 1013.8 | 6.1 | SSE | 16.9 | SSE | 0.0 | 463.2 | |||||||||
| 13:15 | 18.3 | 47.0 | 1013.7 | 7.1 | SE | 16.9 | SSE | 0.0 | 414.0 | |||||||||
| 13:20 | 18.1 | 47.9 | 1013.7 | 9.7 | SSE | 19.6 | E | 0.0 | 414.4 | |||||||||
| 13:25 | 17.8 | 48.6 | 1013.8 | 5.7 | SSE | 16.9 | SSE | 0.0 | 385.9 | |||||||||
| 13:30 | 17.9 | 49.6 | 1013.9 | 5.2 | SSE | 16.9 | SE | 0.0 | 294.5 | |||||||||
| 13:35 | 17.7 | 50.1 | 1013.9 | 4.0 | SSE | 16.9 | ESE | 0.0 | 220.4 | |||||||||
| 13:40 | 17.3 | 51.3 | 1014.0 | 7.1 | SSE | 14.2 | SSE | 0.0 | 207.7 | |||||||||
| 13:45 | 17.1 | 52.5 | 1014.0 | 6.0 | SSE | 16.9 | SSE | 0.0 | 224.1 | |||||||||
| 13:50 | 17.0 | 52.3 | 1014.0 | 7.9 | SE | 19.6 | SSE | 0.0 | 211.0 | |||||||||
| 13:55 | 16.8 | 53.1 | 1014.1 | 6.9 | SSE | 16.9 | E | 0.0 | 157.4 | |||||||||
| 14:00 | 16.6 | 55.2 | 1014.1 | 5.7 | S | 16.9 | E | 0.0 | 121.2 | |||||||||
| 14:05 | 16.3 | 55.5 | 1014.2 | 6.0 | S | 14.2 | SE | 0.0 | 89.4 | |||||||||
| 14:10 | 16.1 | 56.9 | 1014.2 | 6.1 | S | 14.2 | SW | 0.0 | 77.3 | |||||||||
| 14:15 | 16.0 | 56.3 | 1014.2 | 5.3 | SSE | 16.9 | SSE | 0.0 | 75.0 | |||||||||
| 14:20 | 16.0 | 55.8 | 1014.0 | 1.6 | SSE | 8.8 | ESE | 0.0 | 87.7 | |||||||||
| 14:25 | 16.0 | 57.0 | 1013.9 | 4.3 | SE | 19.6 | SE | 0.0 | 113.2 | |||||||||
| 14:30 | 16.1 | 57.4 | 1013.7 | 1.1 | SE | 8.8 | S | 0.0 | 169.4 | |||||||||
| 14:35 | 16.4 | 56.7 | 1013.5 | 0.0 | NNE | 6.1 | NNE | 0.0 | 261.6 | |||||||||
| 14:40 | 16.7 | 54.6 | 1013.3 | 0.2 | E | 8.8 | E | 0.0 | 466.9 | |||||||||
| 14:45 | 16.9 | 53.3 | 1013.1 | 4.7 | ENE | 14.2 | E | 0.0 | 674.4 | |||||||||
| 14:50 | 17.1 | 53.3 | 1013.1 | 1.2 | ESE | 11.5 | ESE | 0.0 | 633.8 | |||||||||
| 14:55 | 17.8 | 51.5 | 1013.0 | 0.8 | E | 8.8 | SE | 0.0 | 564.6 | |||||||||
| 15:00 | 18.1 | 50.6 | 1013.1 | 0.2 | ESE | 8.8 | SSE | 0.0 | 639.3 | |||||||||
| 15:05 | 18.7 | 49.4 | 1013.1 | 0.1 | ESE | 6.1 | ESE | 0.0 | 573.2 | |||||||||
| 15:10 | 18.8 | 48.5 | 1013.0 | 3.2 | SSE | 11.5 | SSE | 0.0 | 620.5 | |||||||||
| 15:15 | 18.8 | 48.4 | 1013.0 | 2.9 | SSE | 11.5 | S | 0.0 | 495.0 | |||||||||
| 15:20 | 18.7 | 48.1 | 1013.0 | 3.2 | S | 11.5 | SSW | 0.0 | 431.2 | |||||||||
| 15:25 | 18.5 | 50.9 | 1013.0 | 3.2 | S | 8.8 | SE | 0.0 | 321.1 | |||||||||
| 15:30 | 18.3 | 52.2 | 1013.0 | 2.2 | SE | 11.5 | SE | 0.0 | 332.8 | |||||||||
| 15:35 | 18.3 | 51.8 | 1013.0 | 2.3 | SSE | 11.5 | SSE | 0.0 | 294.3 | |||||||||
| 15:40 | 18.3 | 52.6 | 1013.1 | 1.1 | SE | 8.8 | SSE | 0.0 | 264.1 | |||||||||
| 15:45 | 18.2 | 53.1 | 1013.1 | 3.2 | SE | 11.5 | SE | 0.0 | 202.7 | |||||||||
| 15:50 | 17.8 | 54.0 | 1013.1 | 5.3 | SE | 14.2 | ESE | 0.0 | 199.6 | |||||||||
| 15:55 | 17.6 | 55.2 | 1013.1 | 4.2 | SE | 16.9 | SSE | 0.0 | 195.5 | |||||||||
| 16:00 | 17.3 | 55.7 | 1013.1 | 5.0 | SSE | 14.2 | SE | 0.0 | 191.1 | |||||||||
| 16:05 | 17.2 | 55.5 | 1013.1 | 3.7 | SE | 14.2 | SSE | 0.0 | 186.3 | |||||||||
| 16:10 | 17.2 | 54.6 | 1013.1 | 4.8 | SSE | 16.9 | ESE | 0.0 | 185.0 | |||||||||
| 16:15 | 17.1 | 56.5 | 1013.1 | 4.7 | SE | 14.2 | SSE | 0.0 | 187.9 | |||||||||
| 16:20 | 17.0 | 56.2 | 1013.0 | 5.4 | SE | 16.9 | SE | 0.0 | 175.7 | |||||||||
| 16:25 | 16.9 | 56.2 | 1013.0 | 3.4 | SSE | 14.2 | SE | 0.0 | 180.0 | |||||||||
| 16:30 | 17.0 | 56.1 | 1013.0 | 1.3 | SSE | 11.5 | SSE | 0.0 | 166.2 | |||||||||
| 16:35 | 17.0 | 56.4 | 1013.1 | 2.7 | SE | 11.5 | SE | 0.0 | 147.3 | |||||||||
| 16:40 | 16.8 | 56.6 | 1013.0 | 2.0 | SE | 14.2 | SE | 0.0 | 139.6 | |||||||||
| 16:45 | 16.9 | 56.7 | 1013.1 | 0.2 | S | 8.8 | S | 0.0 | 116.5 | |||||||||
| 16:50 | 16.8 | 57.8 | 1013.1 | 0.5 | SE | 8.8 | SE | 0.0 | 91.2 | |||||||||
| 16:55 | 16.7 | 58.6 | 1013.1 | 0.9 | S | 11.5 | SSW | 0.0 | 68.8 | |||||||||
| 17:00 | 16.4 | 58.3 | 1013.0 | 0.1 | S | 8.8 | S | 0.0 | 65.5 | |||||||||
| 17:05 | 16.4 | 60.0 | 1013.0 | 0.0 | NNE | 0.0 | S | 0.0 | 66.6 | |||||||||
| 17:10 | 16.3 | 60.3 | 1013.1 | 0.3 | SSE | 8.8 | SSE | 0.0 | 63.4 | |||||||||
| 17:15 | 16.2 | 61.1 | 1013.1 | 1.6 | SE | 11.5 | SSE | 0.0 | 62.6 | |||||||||
| 17:20 | 16.1 | 61.4 | 1013.1 | 1.3 | SE | 14.2 | SE | 0.0 | 59.7 | |||||||||
| 17:25 | 16.1 | 61.8 | 1013.2 | 0.2 | SE | 8.8 | S | 0.0 | 55.2 | |||||||||
| 17:30 | 16.0 | 62.8 | 1013.3 | 1.9 | SSE | 14.2 | SSE | 0.0 | 51.0 | |||||||||
| 17:35 | 15.9 | 63.0 | 1013.3 | 4.0 | SE | 14.2 | ESE | 0.0 | 49.4 | |||||||||
| 17:40 | 15.8 | 63.4 | 1013.3 | 4.0 | SE | 19.6 | SE | 0.0 | 49.7 | |||||||||
| 17:45 | 15.8 | 63.4 | 1013.3 | 2.8 | SE | 14.2 | SE | 0.0 | 47.6 | |||||||||
| 17:50 | 15.7 | 63.1 | 1013.3 | 2.3 | SSE | 14.2 | SSE | 0.0 | 46.1 | |||||||||
| 17:55 | 15.7 | 64.4 | 1013.3 | 1.2 | SSE | 14.2 | S | 0.0 | 42.0 | |||||||||
| 18:00 | 15.6 | 64.6 | 1013.4 | 1.3 | SSE | 14.2 | SE | 0.0 | 35.5 | |||||||||
| 18:05 | 15.5 | 65.8 | 1013.5 | 0.6 | SSE | 8.8 | SSE | 0.0 | 28.9 | |||||||||
| 18:10 | 15.4 | 67.5 | 1013.5 | 3.3 | SE | 19.6 | SE | 0.0 | 27.0 | |||||||||
| 18:15 | 15.4 | 69.1 | 1013.5 | 2.9 | SE | 14.2 | SE | 0.0 | 25.1 | |||||||||
| 18:20 | 15.2 | 69.8 | 1013.6 | 0.9 | SE | 14.2 | SSE | 0.0 | 22.7 | |||||||||
| 18:25 | 15.1 | 71.6 | 1013.7 | 1.7 | ESE | 14.2 | SSE | 0.0 | 20.3 | |||||||||
| 18:30 | 15.0 | 73.2 | 1013.7 | 3.1 | SE | 19.6 | ESE | 0.0 | 16.0 | |||||||||
| 18:35 | 14.9 | 74.4 | 1013.8 | 2.7 | SE | 14.2 | SE | 0.0 | 10.0 | |||||||||
| 18:40 | 14.8 | 75.5 | 1013.9 | 2.4 | SE | 16.9 | SE | 0.0 | 6.1 | |||||||||
| 18:45 | 14.6 | 76.8 | 1013.9 | 2.8 | SE | 16.9 | ESE | 0.0 | 4.1 | |||||||||
| 18:50 | 14.4 | 77.7 | 1014.0 | 3.3 | SE | 16.9 | SSE | 0.0 | 2.9 | |||||||||
| 18:55 | 14.3 | 78.6 | 1014.0 | 2.7 | S | 14.2 | SE | 0.0 | 1.6 | |||||||||
| 19:00 | 14.2 | 79.6 | 1014.0 | 2.3 | SE | 16.9 | SE | 0.0 | 1.0 | |||||||||
| 19:05 | 14.2 | 79.8 | 1014.1 | 0.2 | SE | 11.5 | E | 0.0 | 0.6 | |||||||||
| 19:10 | 14.2 | 79.9 | 1014.2 | 0.2 | SSE | 8.8 | SSE | 0.0 | 0.3 | |||||||||
| 19:15 | 14.1 | 80.1 | 1014.3 | 2.1 | SE | 14.2 | SE | 0.0 | 0.2 | |||||||||
| 19:20 | 14.0 | 79.9 | 1014.4 | 0.3 | SSE | 11.5 | SE | 0.0 | 0.2 | |||||||||
| 19:25 | 13.9 | 80.7 | 1014.4 | 0.0 | NNE | 0.0 | E | 0.0 | 0.2 | |||||||||
| 19:30 | 13.9 | 80.5 | 1014.5 | 0.0 | NNE | 0.0 | SE | 0.0 | 0.1 | |||||||||
| 19:35 | 13.9 | 80.8 | 1014.6 | 0.0 | NNE | 0.0 | S | 0.0 | 0.1 | |||||||||
| 19:40 | 13.9 | 80.7 | 1014.6 | 0.4 | SSE | 11.5 | SE | 0.0 | 0.1 | |||||||||
| 19:45 | 13.9 | 80.7 | 1014.7 | 0.0 | E | 6.1 | E | 0.0 | 0.1 | |||||||||
| 19:50 | 13.9 | 80.3 | 1014.7 | 0.1 | ESE | 11.5 | ENE | 0.0 | 0.1 | |||||||||
| 19:55 | 13.8 | 80.4 | 1014.7 | 0.0 | NNE | 0.0 | ESE | 0.0 | 0.1 | |||||||||
| 20:00 | 13.7 | 80.8 | 1014.7 | 0.0 | NNE | 0.0 | SE | 0.0 | 0.1 | |||||||||
| 20:05 | 13.6 | 81.0 | 1014.7 | 0.0 | NNE | 0.0 | ENE | 0.0 | 0.1 | |||||||||
| 20:10 | 13.5 | 81.5 | 1014.8 | 0.7 | ENE | 11.5 | E | 0.0 | 0.1 | |||||||||
| 20:15 | 13.4 | 82.6 | 1014.9 | 0.0 | NNE | 0.0 | SE | 0.0 | 0.1 | |||||||||
| 20:20 | 13.2 | 83.2 | 1014.9 | 0.0 | NNE | 0.0 | ESE | 0.0 | 0.1 | |||||||||
| 20:25 | 13.1 | 83.8 | 1015.0 | 0.0 | NNE | 0.0 | ENE | 0.0 | 0.2 | |||||||||
| 20:30 | 13.1 | 83.9 | 1014.9 | 0.0 | NNE | 0.0 | ESE | 0.0 | 0.1 | |||||||||
| 20:35 | 13.0 | 84.0 | 1015.0 | 0.0 | NNE | 0.0 | SE | 0.0 | 0.1 | |||||||||
| 20:40 | 13.1 | 84.0 | 1015.0 | 0.0 | NNE | 0.0 | SW | 0.0 | 0.2 | |||||||||
| 20:45 | 13.1 | 83.9 | 1015.0 | 0.0 | NNE | 0.0 | WSW | 0.0 | 0.1 | |||||||||
| 20:50 | 13.1 | 83.6 | 1015.1 | 0.0 | NNE | 0.0 | ENE | 0.0 | 0.1 | |||||||||
| 20:55 | 13.2 | 83.2 | 1015.1 | 0.0 | NNE | 0.0 | SE | 0.0 | 0.2 | |||||||||
| 21:00 | 13.3 | 83.4 | 1015.2 | 0.0 | NNE | 0.0 | E | 0.0 | 0.1 | |||||||||
| 21:05 | 13.3 | 83.3 | 1015.3 | 0.0 | NNE | 0.0 | ENE | 0.0 | 0.1 | |||||||||
| 21:10 | 13.2 | 83.5 | 1015.3 | 0.0 | NNE | 0.0 | ENE | 0.0 | 0.1 | |||||||||
| 21:15 | 13.2 | 83.3 | 1015.3 | 0.0 | NNE | 0.0 | ENE | 0.0 | 0.1 | |||||||||
| 21:20 | 13.1 | 83.5 | 1015.4 | 0.0 | NNE | 0.0 | ESE | 0.0 | 0.1 | |||||||||
| Máxima | 18.9 | 93.8 | 1015.4 | 9.7 | SSE | 22.3 | SW | 0.0 | 908.0 | |||||||||
| Mínima | 6.2 | 43.9 | 1012.2 | |||||||||||||||
| Total | 0.0 | |||||||||||||||||